Time;durP1;ratioP1;P1;durP2;ratioP2;P2;SDS_P1;SDS_P2;PMS_P1;PMS_P2;Temp;Humidity;BMP_temperature;BMP_pressure;BME280_temperature;BME280_humidity;BME280_pressure;Samples;Min_cycle;Max_cycle;Signal;HPM_P1;HPM_P2
2021/09/06 05:01:21;;;;;;;11.25;10.13;;;;;;;19.94;65.91;95410.75;5730226;23;20054;-77
2021/09/06 05:03:46;;;;;;;11.27;10.18;;;;;;;20.80;62.66;95415.91;4951923;28;20490;-76
2021/09/06 05:06:12;;;;;;;12.23;10.98;;;;;;;21.24;61.39;95412.91;4952141;28;20019;-76
2021/09/06 05:08:37;;;;;;;9.45;8.35;;;;;;;20.77;63.69;95419.81;4951691;28;20428;-77
2021/09/06 05:11:02;;;;;;;9.63;8.93;;;;;;;21.77;60.46;95420.78;4969946;28;20081;-76
2021/09/06 05:13:29;;;;;;;11.55;10.60;;;;;;;22.44;58.05;95427.31;4924169;28;20034;-76
2021/09/06 05:15:55;;;;;;;8.68;7.90;;;;;;;22.93;56.61;95427.78;4969893;28;20053;-76
2021/09/06 05:18:20;;;;;;;8.68;7.88;;;;;;;22.00;59.97;95425.28;4953225;28;20031;-76
2021/09/06 05:20:46;;;;;;;8.55;7.80;;;;;;;23.40;55.24;95425.78;4965999;28;20034;-76
2021/09/06 05:23:11;;;;;;;9.57;8.77;;;;;;;24.07;53.42;95421.28;4969726;28;20400;-76
2021/09/06 05:25:37;;;;;;;9.52;8.73;;;;;;;24.18;52.92;95432.88;4958717;28;20030;-76
2021/09/06 05:28:03;;;;;;;10.27;8.52;;;;;;;23.42;54.50;95428.97;4954496;28;20031;-75
2021/09/06 05:30:28;;;;;;;9.90;9.20;;;;;;;23.98;53.46;95434.16;4951278;28;20122;-76
2021/09/06 05:32:54;;;;;;;9.80;9.10;;;;;;;25.11;50.35;95438.81;4952407;28;20666;-76
2021/09/06 05:35:19;;;;;;;9.95;9.15;;;;;;;25.09;50.30;95438.28;4968764;28;20026;-75
2021/09/06 05:37:45;;;;;;;9.68;8.98;;;;;;;26.08;48.69;95437.84;4958982;28;20101;-75
2021/09/06 05:40:11;;;;;;;9.48;8.73;;;;;;;25.69;50.52;95447.91;4973924;28;20043;-75
2021/09/06 05:42:36;;;;;;;9.15;8.27;;;;;;;24.22;52.42;95444.56;4981501;28;20030;-75
2021/09/06 05:45:02;;;;;;;10.85;9.88;;;;;;;24.91;51.15;95443.13;4956558;28;20023;-75
2021/09/06 05:47:28;;;;;;;11.75;10.60;;;;;;;24.80;51.80;95446.66;4962757;28;20034;-75
2021/09/06 05:49:53;;;;;;;11.38;10.40;;;;;;;26.36;48.84;95444.72;4963887;28;20421;-75
2021/09/06 05:52:19;;;;;;;10.30;8.88;;;;;;;26.25;48.10;95441.19;4954492;28;20424;-75
2021/09/06 05:54:44;;;;;;;10.77;8.98;;;;;;;25.89;49.67;95439.31;4939707;28;20026;-75
2021/09/06 05:57:10;;;;;;;11.13;10.02;;;;;;;26.13;49.38;95440.56;4938686;28;20026;-75
2021/09/06 05:59:35;;;;;;;11.50;10.38;;;;;;;22.17;59.21;95436.75;4939235;28;20038;-75
2021/09/06 06:02:01;;;;;;;12.65;10.90;;;;;;;21.79;62.50;95444.28;4972220;28;20133;-75
2021/09/06 06:04:26;;;;;;;12.30;11.30;;;;;;;20.11;68.43;95446.00;4970410;28;20027;-75
2021/09/06 06:06:52;;;;;;;10.55;9.55;;;;;;;22.40;60.07;95444.66;4953996;28;20019;-75
2021/09/06 06:09:17;;;;;;;11.75;10.70;;;;;;;22.52;59.79;95440.16;4952593;28;20042;-75
2021/09/06 06:11:43;;;;;;;10.52;9.63;;;;;;;20.81;63.75;95438.56;4954412;28;20034;-75
2021/09/06 06:14:08;;;;;;;12.50;8.80;;;;;;;21.84;61.38;95429.38;4970958;28;20027;-75
2021/09/06 06:16:34;;;;;;;10.23;9.45;;;;;;;19.86;67.86;95432.09;4953832;28;20531;-75
2021/09/06 06:19:00;;;;;;;10.93;9.00;;;;;;;22.61;59.38;95437.97;4966864;28;20093;-75
2021/09/06 06:21:25;;;;;;;9.68;8.27;;;;;;;22.39;59.65;95437.78;4953754;28;20082;-75
2021/09/06 06:23:51;;;;;;;7.95;7.35;;;;;;;22.87;58.37;95439.28;4935171;29;20397;-75
2021/09/06 06:26:16;;;;;;;7.18;6.47;;;;;;;21.85;58.41;95438.91;4941870;28;20122;-75
2021/09/06 06:28:41;;;;;;;8.25;7.38;;;;;;;20.65;60.78;95437.34;4969641;28;20503;-75
2021/09/06 06:31:07;;;;;;;7.03;6.40;;;;;;;21.69;58.00;95433.50;4969189;28;20397;-75
2021/09/06 06:33:32;;;;;;;8.27;6.75;;;;;;;23.38;51.97;95441.84;4953462;28;20082;-75
2021/09/06 06:35:59;;;;;;;7.40;6.70;;;;;;;27.73;42.52;95433.50;4969436;28;20404;-75
2021/09/06 06:38:24;;;;;;;7.47;6.78;;;;;;;28.15;41.37;95436.72;4937092;28;20027;-74
2021/09/06 06:40:50;;;;;;;6.95;6.25;;;;;;;26.72;42.66;95443.84;4953882;28;20173;-75
2021/09/06 06:43:15;;;;;;;6.30;5.78;;;;;;;27.01;43.08;95441.59;4952620;28;20037;-75
2021/09/06 06:45:42;;;;;;;8.70;5.93;;;;;;;27.63;41.59;95442.28;4953223;28;20420;-75
2021/09/06 06:48:07;;;;;;;7.00;6.18;;;;;;;27.98;40.86;95440.69;4933161;28;20411;-74
2021/09/06 06:50:33;;;;;;;6.82;6.28;;;;;;;28.78;39.51;95439.78;4951564;28;20023;-74
2021/09/06 06:52:58;;;;;;;6.38;5.82;;;;;;;27.56;41.36;95449.72;4942916;28;20037;-75
2021/09/06 06:55:24;;;;;;;7.53;6.93;;;;;;;22.19;54.27;95444.44;4946346;28;20031;-74
2021/09/06 06:57:49;;;;;;;10.77;7.28;;;;;;;19.93;60.24;95467.84;4939047;28;20035;-75
2021/09/06 07:00:15;;;;;;;7.30;6.72;;;;;;;23.12;51.66;95460.91;4961132;28;20018;-74
2021/09/06 07:02:42;;;;;;;7.63;6.93;;;;;;;22.73;52.99;95456.47;4951221;28;20046;-75
2021/09/06 07:05:08;;;;;;;9.05;7.13;;;;;;;20.92;59.60;95458.91;4951866;28;20037;-75
2021/09/06 07:07:33;;;;;;;8.43;7.63;;;;;;;19.76;61.31;95471.19;4921429;28;20026;-73
2021/09/06 07:09:59;;;;;;;7.45;6.85;;;;;;;20.65;59.93;95463.69;4952144;28;20039;-74
2021/09/06 07:12:24;;;;;;;8.50;7.47;;;;;;;20.09;60.13;95471.75;4952492;28;20038;-76
2021/09/06 07:14:50;;;;;;;8.88;6.38;;;;;;;21.32;57.07;95460.00;4969988;28;20492;-75
2021/09/06 07:17:15;;;;;;;7.72;6.97;;;;;;;21.07;58.80;95466.41;4952536;28;20351;-74
2021/09/06 07:19:41;;;;;;;7.07;6.50;;;;;;;23.20;52.40;95449.97;4952718;28;20033;-74
2021/09/06 07:22:06;;;;;;;7.13;6.53;;;;;;;23.15;51.64;95465.72;4969322;28;20030;-75
2021/09/06 07:24:32;;;;;;;7.13;6.53;;;;;;;24.07;50.24;95458.34;4952019;28;20023;-74
2021/09/06 07:26:57;;;;;;;7.55;6.75;;;;;;;23.46;50.55;95472.44;4951132;28;20030;-74
2021/09/06 07:29:23;;;;;;;6.70;5.85;;;;;;;23.40;50.65;95471.53;4936747;28;20050;-74
2021/09/06 07:31:48;;;;;;;7.38;6.78;;;;;;;22.05;52.67;95476.38;4945878;28;20455;-74
2021/09/06 07:34:14;;;;;;;7.45;6.70;;;;;;;22.15;53.83;95483.72;4935973;28;20634;-76
2021/09/06 07:36:39;;;;;;;8.02;6.55;;;;;;;22.65;52.31;95486.66;4936339;28;20023;-74
2021/09/06 07:39:05;;;;;;;6.15;5.68;;;;;;;22.73;52.35;95482.88;4951104;28;20042;-75
2021/09/06 07:41:30;;;;;;;10.05;7.47;;;;;;;21.69;54.18;95479.13;4970052;28;20029;-74
2021/09/06 07:43:56;;;;;;;7.70;7.00;;;;;;;21.25;55.80;95480.41;4968231;28;20039;-74
2021/09/06 07:46:21;;;;;;;6.75;6.25;;;;;;;21.78;55.39;95479.59;4930889;29;20512;-74
2021/09/06 07:48:47;;;;;;;6.85;6.32;;;;;;;22.29;54.43;95477.16;4941326;28;20031;-73
2021/09/06 07:51:12;;;;;;;6.55;5.97;;;;;;;22.24;53.90;95471.78;4968444;28;20026;-74
2021/09/06 07:53:38;;;;;;;7.22;6.35;;;;;;;22.05;54.05;95481.63;4935571;28;20037;-74
2021/09/06 07:56:03;;;;;;;7.05;6.13;;;;;;;21.98;54.89;95483.56;4969361;28;20026;-74
2021/09/06 07:58:29;;;;;;;7.43;6.72;;;;;;;22.70;54.60;95486.00;4969636;28;20546;-74
2021/09/06 08:00:54;;;;;;;7.63;7.00;;;;;;;21.76;53.75;95471.13;4950196;28;20030;-75
2021/09/06 08:03:20;;;;;;;6.78;6.25;;;;;;;22.86;52.63;95485.28;4968649;28;20037;-74
2021/09/06 08:05:45;;;;;;;6.78;6.15;;;;;;;22.33;50.87;95480.13;4950415;28;20094;-74
2021/09/06 08:08:11;;;;;;;6.80;5.55;;;;;;;23.30;50.83;95481.09;4951882;28;20053;-74
2021/09/06 08:10:37;;;;;;;6.30;5.70;;;;;;;22.50;49.83;95481.06;4967292;28;20494;-74
2021/09/06 08:13:03;;;;;;;6.93;6.32;;;;;;;21.69;52.87;95478.34;4951984;28;20026;-73
2021/09/06 08:15:28;;;;;;;7.03;6.30;;;;;;;22.93;52.47;95480.63;4952054;28;20027;-74
2021/09/06 08:17:55;;;;;;;7.57;6.78;;;;;;;21.92;54.45;95484.50;4967280;28;20030;-74
2021/09/06 08:20:20;;;;;;;10.02;7.00;;;;;;;21.24;55.48;95480.59;4968293;28;20037;-74
2021/09/06 08:22:46;;;;;;;7.20;6.43;;;;;;;20.87;57.81;95483.25;4966860;28;20027;-73
2021/09/06 08:25:12;;;;;;;8.13;7.43;;;;;;;20.56;58.35;95472.09;4952214;28;20026;-73
2021/09/06 08:27:38;;;;;;;7.35;6.65;;;;;;;20.66;59.80;95485.56;4950696;28;20023;-75
2021/09/06 08:30:04;;;;;;;6.93;6.30;;;;;;;21.28;56.68;95484.41;4951576;28;20058;-74
2021/09/06 08:32:30;;;;;;;9.05;6.38;;;;;;;21.38;55.82;95488.09;4951207;28;20408;-74
2021/09/06 08:34:55;;;;;;;9.35;5.88;;;;;;;21.54;56.51;95489.31;4954403;28;20034;-74
2021/09/06 08:37:22;;;;;;;6.80;6.20;;;;;;;20.88;57.61;95479.63;4956352;28;20027;-74
2021/09/06 08:39:48;;;;;;;7.57;6.90;;;;;;;20.83;58.38;95476.84;4927301;28;20037;-74
2021/09/06 08:42:14;;;;;;;8.52;6.82;;;;;;;20.76;60.20;95480.56;4916008;28;20436;-74
2021/09/06 08:44:39;;;;;;;7.07;6.50;;;;;;;20.46;61.10;95476.03;4941779;28;20117;-73
2021/09/06 08:47:06;;;;;;;9.95;6.60;;;;;;;20.89;59.10;95481.22;4932386;28;20031;-75
2021/09/06 08:49:31;;;;;;;7.85;7.15;;;;;;;21.00;58.38;95477.84;4961376;28;20038;-79
2021/09/06 08:51:58;;;;;;;8.48;7.63;;;;;;;20.91;58.43;95483.63;4946911;28;20704;-74
2021/09/06 08:54:24;;;;;;;7.75;6.82;;;;;;;20.49;59.52;95486.13;4945504;28;20032;-74
2021/09/06 08:56:49;;;;;;;9.05;6.72;;;;;;;20.38;60.14;95481.59;4955606;28;20867;-74
2021/09/06 08:59:17;;;;;;;7.07;6.47;;;;;;;19.98;60.82;95482.94;4967197;28;20062;-79
2021/09/06 09:01:44;;;;;;;10.82;7.28;;;;;;;19.91;61.23;95488.25;4941416;28;20410;-75
2021/09/06 09:04:19;;;;;;;7.32;6.72;;;;;;;20.03;61.15;95487.56;4933537;28;20027;-74
2021/09/06 09:06:58;;;;;;;7.85;7.22;;;;;;;20.31;60.61;95485.31;4949955;28;20019;-74
2021/09/06 09:09:35;;;;;;;7.57;6.90;;;;;;;21.31;56.57;95487.41;4958561;28;20074;-73
2021/09/06 09:12:06;;;;;;;6.80;6.20;;;;;;;21.27;57.17;95480.16;4962326;28;20054;-73
2021/09/06 09:14:33;;;;;;;7.22;6.53;;;;;;;20.92;58.14;95480.78;4947691;28;20041;-74
2021/09/06 09:16:58;;;;;;;7.22;6.53;;;;;;;21.47;57.62;95488.59;4933238;28;20488;-74
2021/09/06 09:19:24;;;;;;;7.53;6.82;;;;;;;22.23;54.33;95482.53;4970971;28;20022;-74
2021/09/06 09:22:00;;;;;;;6.95;6.35;;;;;;;23.00;51.35;95479.47;4952050;28;20110;-74
2021/09/06 09:24:25;;;;;;;7.07;6.47;;;;;;;21.72;54.82;95486.59;4970661;28;20168;-74
2021/09/06 09:26:55;;;;;;;6.60;5.97;;;;;;;22.74;53.41;95479.19;4954619;28;20564;-75
2021/09/06 09:29:21;;;;;;;6.68;5.97;;;;;;;22.33;52.62;95473.03;4937601;28;20492;-75
2021/09/06 09:31:50;;;;;;;6.90;5.90;;;;;;;23.08;51.15;95462.44;4936852;28;20109;-74
2021/09/06 09:34:16;;;;;;;;;;;;;;;23.32;50.99;95466.59;4955961;28;20035;-74
2021/09/06 09:36:42;;;;;;;7.93;6.30;;;;;;;22.05;52.72;95475.56;4949661;28;20232;-74
2021/09/06 09:39:11;;;;;;;7.88;6.20;;;;;;;21.69;54.15;95473.06;4961241;28;20023;-74
2021/09/06 09:41:37;;;;;;;7.47;6.05;;;;;;;21.80;54.20;95473.06;4964223;28;20055;-74
2021/09/06 09:44:07;;;;;;;6.72;5.97;;;;;;;21.66;53.99;95476.97;4936588;28;20035;-74
2021/09/06 09:46:32;;;;;;;6.97;6.25;;;;;;;21.80;53.73;95469.66;4937301;28;20130;-74
2021/09/06 09:49:11;;;;;;;6.43;5.82;;;;;;;22.10;52.31;95474.84;4953280;28;20456;-74
2021/09/06 09:51:36;;;;;;;6.65;6.10;;;;;;;22.11;53.11;95474.63;4954931;28;20047;-74
2021/09/06 09:54:03;;;;;;;6.57;5.55;;;;;;;22.08;53.15;95471.66;4951449;28;20472;-74
2021/09/06 09:56:30;;;;;;;6.47;5.97;;;;;;;22.13;54.53;95471.75;4935079;28;20054;-74
2021/09/06 09:58:55;;;;;;;6.90;6.07;;;;;;;21.84;54.63;95473.41;4953368;28;20062;-75
2021/09/06 10:01:21;;;;;;;8.05;7.25;;;;;;;21.94;56.44;95471.88;4949891;29;20051;-74
2021/09/06 10:03:46;;;;;;;6.68;5.75;;;;;;;21.30;55.14;95475.25;4951535;29;20035;-74
2021/09/06 10:06:12;;;;;;;6.90;6.30;;;;;;;20.82;55.91;95477.06;4933959;29;20058;-74
2021/09/06 10:08:37;;;;;;;6.28;5.75;;;;;;;20.84;56.48;95486.34;4951172;29;20078;-74
2021/09/06 10:11:12;;;;;;;6.15;5.50;;;;;;;20.37;59.20;95481.81;4918156;29;20573;-75
2021/09/06 10:13:41;;;;;;;6.40;5.80;;;;;;;20.22;60.47;95471.63;4935332;29;20031;-76
2021/09/06 10:16:06;;;;;;;6.63;6.03;;;;;;;19.83;61.56;95485.09;4950316;29;20026;-75
2021/09/06 10:18:39;;;;;;;6.65;5.53;;;;;;;19.64;62.38;95480.81;4950614;29;20031;-74
2021/09/06 10:21:15;;;;;;;7.43;6.35;;;;;;;19.41;63.41;95492.69;4935086;29;20497;-74
2021/09/06 10:23:48;;;;;;;7.47;6.03;;;;;;;19.36;64.18;95499.56;4949851;29;20027;-74
2021/09/06 10:26:14;;;;;;;6.90;6.20;;;;;;;19.31;64.89;95500.19;4950244;29;20063;-74
2021/09/06 10:28:39;;;;;;;7.32;6.70;;;;;;;19.34;64.33;95501.59;4948860;28;20554;-76
2021/09/06 10:31:05;;;;;;;14.15;6.53;;;;;;;18.96;65.11;95504.19;4951586;29;20035;-74
2021/09/06 10:33:32;;;;;;;7.07;6.47;;;;;;;19.21;65.35;95501.66;4933805;29;20441;-72
2021/09/06 10:36:07;;;;;;;12.43;6.95;;;;;;;19.28;65.26;95500.59;4951421;28;20408;-74
2021/09/06 10:38:40;;;;;;;6.18;5.63;;;;;;;19.30;64.99;95495.94;4950377;29;20030;-75
2021/09/06 10:41:16;;;;;;;7.60;6.35;;;;;;;19.25;64.72;95498.41;4949394;29;20042;-77
2021/09/06 10:43:49;;;;;;;9.10;7.00;;;;;;;19.25;65.20;95497.59;4949992;28;20035;-74
2021/09/06 10:46:14;;;;;;;7.00;6.45;;;;;;;19.12;64.75;95508.16;4949906;28;20038;-74
2021/09/06 10:48:40;;;;;;;7.20;6.60;;;;;;;19.01;64.55;95501.75;4949873;29;20035;-75
2021/09/06 10:51:05;;;;;;;9.23;6.80;;;;;;;18.94;66.88;95511.50;4950249;29;20114;-74
2021/09/06 10:53:31;;;;;;;6.68;6.07;;;;;;;18.78;66.93;95514.59;4948747;28;20030;-76
2021/09/06 10:55:57;;;;;;;8.80;6.72;;;;;;;19.13;66.39;95512.41;4947056;29;20042;-74
2021/09/06 10:58:24;;;;;;;6.97;6.38;;;;;;;19.27;66.13;95512.13;4950084;28;20031;-75
2021/09/06 11:00:52;;;;;;;7.63;6.40;;;;;;;19.43;66.02;95514.28;4952942;28;20050;-74
2021/09/06 11:03:17;;;;;;;7.03;6.38;;;;;;;19.50;65.58;95510.81;4936701;28;20027;-75
2021/09/06 11:05:57;;;;;;;7.55;6.70;;;;;;;19.43;65.22;95516.09;4953218;28;20031;-74
2021/09/06 11:08:27;;;;;;;8.18;5.95;;;;;;;19.34;65.25;95506.84;4952801;28;20103;-74
2021/09/06 11:10:56;;;;;;;7.45;6.82;;;;;;;19.42;64.38;95498.75;4952548;28;20500;-74
2021/09/06 11:13:22;;;;;;;7.50;6.80;;;;;;;19.47;64.10;95496.28;4953517;28;20027;-74
2021/09/06 11:15:48;;;;;;;7.70;6.60;;;;;;;19.45;64.22;95504.38;4951340;28;20027;-72
2021/09/06 11:18:13;;;;;;;7.30;6.70;;;;;;;19.59;63.65;95506.91;4952869;28;20034;-76
2021/09/06 11:20:39;;;;;;;6.78;6.18;;;;;;;19.66;63.69;95497.97;4968566;28;20031;-74
2021/09/06 11:23:06;;;;;;;7.35;6.32;;;;;;;19.65;64.16;95492.94;4970384;28;20034;-75
2021/09/06 11:25:32;;;;;;;8.07;6.82;;;;;;;19.59;63.77;95493.75;4936022;28;20034;-75
2021/09/06 11:28:09;;;;;;;7.40;6.65;;;;;;;19.33;64.34;95500.78;4952174;28;20033;-73
2021/09/06 11:30:36;;;;;;;7.35;6.63;;;;;;;19.46;63.49;95500.72;4958834;28;20107;-72
2021/09/06 11:33:03;;;;;;;6.97;6.28;;;;;;;19.52;63.66;95503.53;4968823;28;20407;-71
2021/09/06 11:35:28;;;;;;;5.65;5.15;;;;;;;19.45;63.58;95503.59;4937014;28;20027;-73
2021/09/06 11:37:54;;;;;;;312.48;21.27;;;;;;;19.46;63.38;95495.47;4968299;28;20578;-74
2021/09/06 11:40:19;;;;;;;1702.53;98.88;;;;;;;19.58;63.04;95502.69;4952470;28;20027;-74
2021/09/06 11:42:45;;;;;;;571.45;28.38;;;;;;;19.68;62.88;95489.88;4969429;28;20370;-74
2021/09/06 11:45:10;;;;;;;44.83;9.10;;;;;;;19.78;62.65;95498.06;4968877;28;20031;-73
2021/09/06 11:47:37;;;;;;;7.07;6.25;;;;;;;19.82;64.14;95497.44;4936312;28;20035;-74
2021/09/06 11:50:02;;;;;;;1107.47;54.97;;;;;;;19.62;65.25;95488.88;4950761;28;20027;-73
2021/09/06 11:52:32;;;;;;;1999.90;166.50;;;;;;;19.57;65.68;95490.56;4935100;28;20041;-73
2021/09/06 11:54:58;;;;;;;49.30;7.35;;;;;;;19.49;66.95;95488.19;4968501;28;20035;-72
2021/09/06 11:57:28;;;;;;;81.90;8.98;;;;;;;19.43;67.36;95488.00;4936439;28;20507;-73
2021/09/06 11:59:54;;;;;;;13.30;6.55;;;;;;;19.90;65.03;95485.88;4967651;28;20022;-73
2021/09/06 12:02:20;;;;;;;8.25;6.47;;;;;;;19.94;65.58;95487.03;4948417;28;20548;-73
2021/09/06 12:04:46;;;;;;;94.35;10.82;;;;;;;19.66;65.35;95474.31;4948728;29;20031;-74
2021/09/06 12:07:15;;;;;;;194.23;13.75;;;;;;;19.23;67.75;95489.13;4948813;28;20054;-73
2021/09/06 12:09:40;;;;;;;34.83;7.32;;;;;;;19.27;69.29;95480.59;4948398;29;20053;-72
2021/09/06 12:12:21;;;;;;;124.72;11.73;;;;;;;19.31;66.44;95475.72;4963457;28;20493;-73
2021/09/06 12:14:49;;;;;;;7.25;6.38;;;;;;;19.46;66.84;95474.44;4947706;29;20552;-73
2021/09/06 12:17:15;;;;;;;6.15;5.65;;;;;;;19.86;65.33;95482.84;4948105;29;20037;-73
2021/09/06 12:19:45;;;;;;;8.52;6.47;;;;;;;20.12;63.81;95473.94;4947839;29;20039;-73
2021/09/06 12:22:13;;;;;;;38.40;7.32;;;;;;;19.60;66.69;95467.28;4947906;29;20070;-73
2021/09/06 12:24:39;;;;;;;123.57;10.57;;;;;;;19.17;66.13;95472.38;4947647;29;20775;-73
2021/09/06 12:27:15;;;;;;;6.88;5.70;;;;;;;19.95;65.44;95467.59;4948581;29;20113;-73
2021/09/06 12:29:41;;;;;;;6.13;5.63;;;;;;;19.37;63.40;95462.56;4961498;28;20061;-74
2021/09/06 12:32:07;;;;;;;46.42;7.05;;;;;;;19.81;63.62;95460.88;4948658;29;20055;-74
2021/09/06 12:34:32;;;;;;;6.00;5.45;;;;;;;20.05;61.51;95453.97;4946084;28;20106;-73
2021/09/06 12:36:59;;;;;;;6.45;5.90;;;;;;;19.87;63.35;95460.00;4931165;29;20137;-73
2021/09/06 12:39:24;;;;;;;136.50;10.52;;;;;;;20.13;61.81;95459.75;4942998;28;20036;-73
2021/09/06 12:41:50;;;;;;;127.25;10.55;;;;;;;19.83;62.38;95458.81;4948419;28;20489;-73
2021/09/06 12:44:15;;;;;;;6.38;5.88;;;;;;;20.37;61.32;95456.31;4949096;28;20521;-74
2021/09/06 12:46:41;;;;;;;94.57;8.60;;;;;;;19.79;62.01;95460.25;4948653;29;20386;-72
2021/09/06 12:49:06;;;;;;;34.28;6.88;;;;;;;19.93;62.49;95448.63;4948511;28;20043;-73
2021/09/06 12:51:31;;;;;;;195.63;13.20;;;;;;;19.85;62.51;95451.50;4961945;28;20031;-73
2021/09/06 12:53:57;;;;;;;9.50;5.88;;;;;;;19.91;62.32;95455.91;4950278;29;20035;-74
2021/09/06 12:56:22;;;;;;;6.38;5.78;;;;;;;20.54;61.39;95446.00;4935580;29;20042;-74
2021/09/06 12:58:50;;;;;;;6.65;5.53;;;;;;;20.79;59.97;95448.53;4936495;28;20032;-74
2021/09/06 13:01:16;;;;;;;5.93;5.43;;;;;;;20.68;60.09;95451.94;4948907;28;20054;-74
2021/09/06 13:03:41;;;;;;;22.80;6.80;;;;;;;20.50;60.61;95456.16;4933023;29;20048;-73
2021/09/06 13:06:07;;;;;;;7.07;6.03;;;;;;;20.78;60.51;95442.47;4951717;29;20043;-73
2021/09/06 13:08:32;;;;;;;265.23;16.15;;;;;;;20.80;60.09;95444.88;4935176;29;20031;-74
2021/09/06 13:10:57;;;;;;;45.65;8.07;;;;;;;20.61;59.21;95441.47;4952104;29;20125;-74
2021/09/06 13:13:23;;;;;;;6.65;6.05;;;;;;;20.52;60.71;95447.25;4951469;29;20023;-73
2021/09/06 13:15:55;;;;;;;6.43;5.82;;;;;;;20.47;60.05;95440.00;4951268;29;20385;-74
2021/09/06 13:18:21;;;;;;;5.95;5.35;;;;;;;20.74;60.14;95448.41;4952283;29;20525;-74
2021/09/06 13:20:46;;;;;;;1696.53;102.25;;;;;;;20.68;56.95;95442.19;4934908;29;20038;-72
2021/09/06 13:23:12;;;;;;;86.85;7.75;;;;;;;20.68;57.53;95434.28;4936041;29;20068;-74
2021/09/06 13:25:37;;;;;;;1968.72;129.10;;;;;;;20.55;55.74;95436.28;4950779;29;20401;-75
2021/09/06 13:28:03;;;;;;;60.20;6.85;;;;;;;20.66;55.73;95428.44;4951892;29;20023;-75
2021/09/06 13:30:29;;;;;;;47.63;6.03;;;;;;;20.77;55.94;95432.16;4935015;28;20047;-75
2021/09/06 13:32:54;;;;;;;20.30;5.00;;;;;;;20.98;54.76;95436.94;4951611;29;20032;-75
2021/09/06 13:35:20;;;;;;;1999.90;148.45;;;;;;;20.79;54.88;95427.47;4951615;29;20031;-74
2021/09/06 13:37:45;;;;;;;107.28;7.82;;;;;;;21.00;55.32;95422.50;4950947;29;20110;-73
2021/09/06 13:40:11;;;;;;;6.18;5.07;;;;;;;20.90;55.16;95424.09;4925262;29;20034;-75
2021/09/06 13:42:37;;;;;;;4.95;3.90;;;;;;;20.67;54.90;95429.25;4918766;29;20117;-74
2021/09/06 13:45:02;;;;;;;71.88;6.53;;;;;;;21.33;53.25;95421.28;4935317;29;20035;-76
2021/09/06 13:47:28;;;;;;;26.25;5.20;;;;;;;21.43;52.97;95416.25;4966286;28;20026;-75
2021/09/06 13:49:55;;;;;;;5.00;4.55;;;;;;;21.31;52.62;95410.97;4951420;29;20039;-75
2021/09/06 13:52:21;;;;;;;340.40;19.85;;;;;;;20.97;51.43;95419.53;4950571;29;20031;-75
2021/09/06 13:54:47;;;;;;;6.40;4.32;;;;;;;20.94;51.67;95418.13;4947473;29;20031;-75
2021/09/06 13:57:13;;;;;;;4.82;4.43;;;;;;;20.84;51.74;95409.97;4933663;29;20027;-75
2021/09/06 13:59:38;;;;;;;414.52;30.35;;;;;;;20.75;50.52;95413.13;4920230;29;20421;-75
2021/09/06 14:02:04;;;;;;;4.70;3.53;;;;;;;20.73;51.24;95415.19;4950637;28;20070;-75
2021/09/06 14:04:29;;;;;;;804.70;56.83;;;;;;;20.75;51.09;95413.13;4943533;29;20043;-75
2021/09/06 14:06:55;;;;;;;221.90;12.48;;;;;;;20.67;50.18;95408.19;4915606;29;20028;-76
2021/09/06 14:09:20;;;;;;;108.93;7.68;;;;;;;20.62;49.83;95411.47;4933362;29;20466;-75
2021/09/06 14:11:46;;;;;;;108.30;7.85;;;;;;;20.61;50.27;95406.44;4945775;29;20039;-75
2021/09/06 14:14:11;;;;;;;1377.65;94.05;;;;;;;20.72;49.66;95416.22;4934148;29;20038;-76
2021/09/06 14:16:38;;;;;;;3.85;3.55;;;;;;;20.70;49.97;95408.53;4936340;29;20024;-75
2021/09/06 14:19:03;;;;;;;551.40;36.67;;;;;;;20.89;48.76;95406.69;4938297;29;20027;-75
2021/09/06 14:21:28;;;;;;;379.08;25.90;;;;;;;20.79;49.29;95412.47;4922272;29;20046;-76
2021/09/06 14:23:54;;;;;;;5.57;3.75;;;;;;;20.81;49.28;95415.69;4950818;28;20040;-75
2021/09/06 14:26:19;;;;;;;3.55;3.25;;;;;;;21.08;48.63;95416.13;4947967;28;20043;-76
2021/09/06 14:28:45;;;;;;;639.70;31.52;;;;;;;21.13;47.77;95411.00;4950517;29;20027;-75
2021/09/06 14:31:10;;;;;;;607.53;35.50;;;;;;;21.00;47.93;95411.16;4950801;28;20038;-75
2021/09/06 14:33:36;;;;;;;1999.90;185.82;;;;;;;21.16;46.72;95409.78;4951416;28;20066;-76
2021/09/06 14:36:01;;;;;;;944.45;67.68;;;;;;;21.08;45.70;95416.13;4950471;29;20023;-75
2021/09/06 14:38:27;;;;;;;1999.90;222.43;;;;;;;20.87;45.93;95414.00;4932876;29;20034;-80
2021/09/06 14:40:53;;;;;;;154.88;15.88;;;;;;;20.80;46.26;95418.56;4931249;29;20050;-73
2021/09/06 14:43:18;;;;;;;124.78;8.95;;;;;;;20.94;46.83;95409.44;4948846;29;20027;-76
2021/09/06 14:45:44;;;;;;;231.98;11.68;;;;;;;21.02;45.64;95411.75;4951799;28;20031;-76
2021/09/06 14:48:09;;;;;;;142.00;9.43;;;;;;;21.14;46.41;95417.91;4950538;28;20035;-75
2021/09/06 14:50:35;;;;;;;3.70;3.30;;;;;;;21.27;45.26;95415.09;4936505;29;20079;-76
2021/09/06 14:53:00;;;;;;;377.58;19.27;;;;;;;21.44;45.49;95410.78;4947273;29;20046;-76
2021/09/06 14:55:26;;;;;;;1999.90;148.80;;;;;;;21.52;44.16;95415.72;4950612;28;20041;-77
2021/09/06 14:57:51;;;;;;;3.63;3.28;;;;;;;21.75;44.63;95419.41;4950344;29;20464;-74
2021/09/06 15:00:18;;;;;;;103.32;6.75;;;;;;;21.71;44.62;95420.88;4949506;29;20035;-75
2021/09/06 15:02:43;;;;;;;76.18;6.85;;;;;;;21.39;45.35;95418.53;4934045;29;20453;-75
2021/09/06 15:05:10;;;;;;;1034.45;65.47;;;;;;;21.21;45.19;95421.25;4950027;29;20023;-75
2021/09/06 15:07:36;;;;;;;3.70;3.40;;;;;;;20.97;46.17;95419.53;4949702;29;20163;-76
2021/09/06 15:10:02;;;;;;;1751.63;114.63;;;;;;;20.63;46.09;95420.97;4933142;29;20027;-77
2021/09/06 15:12:27;;;;;;;5.35;4.53;;;;;;;20.48;47.17;95413.44;4917355;29;20034;-76
2021/09/06 15:14:53;;;;;;;191.38;11.95;;;;;;;20.37;47.13;95419.47;4916763;28;20039;-77
2021/09/06 15:17:18;;;;;;;1279.85;83.25;;;;;;;20.29;46.15;95418.97;4949295;28;20024;-76
2021/09/06 15:19:44;;;;;;;917.15;71.00;;;;;;;20.44;46.04;95417.56;4949433;29;20568;-76
2021/09/06 15:22:09;;;;;;;1099.97;53.45;;;;;;;20.40;46.46;95418.22;4947617;29;20536;-76
2021/09/06 15:24:35;;;;;;;119.18;8.48;;;;;;;20.43;45.66;95418.56;4927049;29;20098;-76
2021/09/06 15:27:00;;;;;;;7.68;3.38;;;;;;;20.25;46.99;95418.56;4945791;29;20027;-76
2021/09/06 15:29:26;;;;;;;1999.90;115.80;;;;;;;20.01;46.05;95416.75;4946588;29;20047;-80
2021/09/06 15:31:52;;;;;;;273.40;17.20;;;;;;;19.86;46.75;95419.75;4931617;29;20441;-80
2021/09/06 15:34:19;;;;;;;1249.53;76.82;;;;;;;19.75;46.80;95424.88;4925604;29;20436;-75
2021/09/06 15:36:45;;;;;;;265.08;14.07;;;;;;;19.90;46.65;95426.19;4930196;29;20122;-75
2021/09/06 15:39:11;;;;;;;103.30;6.82;;;;;;;19.99;46.81;95427.53;4929318;29;20027;-76
2021/09/06 15:41:48;;;;;;;224.02;16.00;;;;;;;19.93;47.17;95422.31;4916167;29;20064;-77
2021/09/06 15:44:16;;;;;;;134.98;9.43;;;;;;;19.97;46.69;95426.91;4917277;29;20070;-75
2021/09/06 15:46:52;;;;;;;141.13;8.77;;;;;;;19.92;46.68;95425.97;4946311;29;20050;-74
2021/09/06 15:49:17;;;;;;;1999.90;145.77;;;;;;;19.85;46.28;95423.38;4946177;29;20046;-76
2021/09/06 15:51:43;;;;;;;714.33;39.00;;;;;;;19.80;46.40;95432.94;4963880;28;20019;-78
2021/09/06 15:54:08;;;;;;;1014.42;50.95;;;;;;;19.73;46.77;95429.56;4948462;29;20164;-74
2021/09/06 15:56:37;;;;;;;1999.90;202.43;;;;;;;19.64;46.85;95420.34;4947179;29;20027;-76
2021/09/06 15:59:09;;;;;;;795.10;37.85;;;;;;;19.60;47.22;95432.31;4949499;29;20039;-76
2021/09/06 16:01:35;;;;;;;3.92;3.63;;;;;;;19.47;47.90;95435.84;4947678;29;20134;-75
2021/09/06 16:04:00;;;;;;;280.35;13.98;;;;;;;19.43;47.70;95438.09;4932860;29;20082;-74
2021/09/06 16:06:26;;;;;;;156.25;8.88;;;;;;;19.25;48.24;95438.00;4946055;29;20552;-75
2021/09/06 16:08:51;;;;;;;57.70;6.28;;;;;;;19.16;48.19;95428.75;4943307;29;20690;-75
2021/09/06 16:11:17;;;;;;;1265.72;69.65;;;;;;;19.17;47.89;95437.44;4946324;29;20031;-75
2021/09/06 16:13:42;;;;;;;4.32;3.80;;;;;;;19.01;49.59;95433.47;4928787;29;20584;-75
2021/09/06 16:16:08;;;;;;;4.22;3.83;;;;;;;18.90;49.34;95431.53;4936796;29;20512;-75
2021/09/06 16:18:33;;;;;;;1755.13;105.97;;;;;;;18.81;49.48;95428.34;4939382;29;20032;-76
2021/09/06 16:20:59;;;;;;;7.30;3.65;;;;;;;18.62;50.59;95436.31;4921585;29;20089;-73
2021/09/06 16:23:24;;;;;;;4.30;3.47;;;;;;;18.46;52.04;95431.50;4953443;28;20042;-77